createdAt,value
2019-02-18T00:01:32.158Z,11.03
2019-02-18T00:06:16.654Z,10.87
2019-02-18T00:11:01.238Z,10.33
2019-02-18T00:15:45.852Z,11.40
2019-02-18T00:20:30.414Z,10.60
2019-02-18T00:25:15.157Z,9.23
2019-02-18T00:29:59.652Z,8.07
2019-02-18T00:34:44.171Z,7.23
2019-02-18T00:39:28.850Z,6.23
2019-02-18T00:44:13.455Z,5.80
2019-02-18T00:48:58.263Z,5.43
2019-02-18T00:53:42.854Z,5.47
2019-02-18T00:58:27.682Z,6.62
2019-02-18T01:03:12.258Z,5.80
2019-02-18T01:07:56.908Z,5.83
2019-02-18T01:12:41.519Z,6.03
2019-02-18T01:17:26.350Z,5.93
2019-02-18T01:22:11.036Z,5.80
2019-02-18T01:26:55.877Z,5.47
2019-02-18T01:31:40.600Z,6.03
2019-02-18T01:36:25.143Z,6.43
2019-02-18T01:41:09.862Z,6.03
2019-02-18T01:45:54.478Z,6.30
2019-02-18T01:50:39.192Z,4.60
2019-02-18T01:55:23.796Z,4.97
2019-02-18T02:00:10.920Z,4.80
2019-02-18T02:04:55.394Z,5.93
2019-02-18T02:09:39.905Z,6.33
2019-02-18T02:14:24.506Z,5.57
2019-02-18T02:19:09.097Z,5.00
2019-02-18T02:23:53.669Z,5.30
2019-02-18T02:28:38.212Z,5.70
2019-02-18T02:33:22.812Z,5.23
2019-02-18T02:38:08.208Z,5.63
2019-02-18T02:42:52.976Z,5.63
2019-02-18T02:47:37.646Z,5.80
2019-02-18T02:52:22.322Z,6.53
2019-02-18T02:57:06.824Z,6.23
2019-02-18T03:01:51.250Z,5.60
2019-02-18T03:06:35.969Z,5.00
2019-02-18T03:11:20.511Z,4.40
2019-02-18T03:16:05.056Z,4.60
2019-02-18T03:20:49.581Z,4.20
2019-02-18T03:25:34.248Z,4.37
2019-02-18T03:30:47.626Z,4.30
2019-02-18T03:35:32.170Z,4.93
2019-02-18T03:40:16.662Z,3.83
2019-02-18T03:45:01.200Z,4.07
2019-02-18T03:49:45.855Z,3.37
2019-02-18T03:54:30.392Z,2.87
2019-02-18T03:59:14.916Z,2.87
2019-02-18T04:03:59.494Z,2.77
2019-02-18T04:08:44.162Z,3.07
2019-02-18T04:13:28.690Z,2.70
2019-02-18T04:18:13.246Z,3.00
2019-02-18T04:22:57.730Z,2.67
2019-02-18T04:27:42.265Z,2.30
2019-02-18T04:32:26.895Z,2.20
2019-02-18T04:37:11.492Z,2.00
2019-02-18T04:41:56.098Z,2.37
2019-02-18T04:46:40.642Z,2.10
2019-02-18T04:51:25.225Z,2.17
2019-02-18T04:56:09.842Z,2.00
2019-02-18T05:00:54.381Z,1.80
2019-02-18T05:05:39.058Z,1.67
2019-02-18T05:10:23.564Z,2.10
2019-02-18T05:15:08.307Z,2.03
2019-02-18T05:19:52.966Z,2.00
2019-02-18T05:24:37.507Z,2.50
2019-02-18T05:29:22.281Z,2.90
2019-02-18T05:34:06.743Z,1.97
2019-02-18T05:38:51.321Z,2.20
2019-02-18T05:43:36.097Z,2.07
2019-02-18T05:48:20.768Z,2.30
2019-02-18T05:53:05.282Z,2.10
2019-02-18T05:57:49.798Z,2.33
2019-02-18T06:02:34.758Z,2.37
2019-02-18T06:07:19.310Z,2.40
2019-02-18T06:12:03.911Z,2.03
2019-02-18T06:16:48.507Z,2.80
2019-02-18T06:21:33.074Z,2.43
2019-02-18T06:26:17.664Z,2.00
2019-02-18T06:31:02.359Z,2.07
2019-02-18T06:35:46.898Z,2.10
2019-02-18T06:40:31.511Z,2.10
2019-02-18T06:45:35.053Z,2.23
2019-02-18T06:50:19.700Z,2.27
2019-02-18T06:55:04.584Z,2.30
2019-02-18T06:59:55.067Z,2.30
2019-02-18T07:04:58.765Z,3.70
2019-02-18T07:10:00.262Z,5.07
2019-02-18T07:14:45.118Z,4.47
2019-02-18T07:19:29.851Z,4.67
2019-02-18T07:24:15.381Z,4.30
2019-02-18T07:29:00.034Z,3.53
2019-02-18T07:33:44.743Z,3.03
2019-02-18T07:38:31.966Z,2.90
2019-02-18T07:43:16.555Z,3.03
2019-02-18T07:48:01.170Z,2.47
2019-02-18T07:52:45.933Z,2.30
2019-02-18T07:57:30.594Z,2.63
2019-02-18T08:02:15.219Z,3.10
2019-02-18T08:06:59.805Z,3.17
2019-02-18T08:11:44.437Z,2.67
2019-02-18T08:16:29.084Z,3.23
2019-02-18T08:21:13.805Z,2.70
2019-02-18T08:25:58.318Z,3.53
2019-02-18T08:30:42.893Z,6.20
2019-02-18T08:35:27.562Z,6.70
2019-02-18T08:40:21.800Z,9.87
2019-02-18T08:44:58.369Z,11.37
2019-02-18T08:49:42.899Z,10.87
2019-02-18T08:54:27.489Z,12.27
2019-02-18T08:59:12.169Z,12.27
2019-02-18T09:03:56.754Z,13.07
2019-02-18T09:08:41.343Z,13.30
2019-02-18T09:13:25.922Z,6.73
2019-02-18T09:18:10.540Z,4.67
2019-02-18T09:23:12.176Z,14.43
2019-02-18T09:27:56.767Z,13.73
2019-02-18T09:32:41.484Z,15.43
2019-02-18T09:37:26.349Z,15.17
2019-02-18T09:42:10.979Z,17.67
2019-02-18T09:46:55.495Z,17.90
2019-02-18T09:51:40.141Z,17.23
2019-02-18T09:56:24.715Z,18.57
2019-02-18T10:01:09.280Z,19.33
2019-02-18T10:05:53.894Z,19.50
2019-02-18T10:10:38.402Z,21.37
2019-02-18T10:15:22.957Z,19.80
2019-02-18T10:20:08.159Z,23.57
2019-02-18T10:24:52.708Z,22.40
2019-02-18T10:29:37.454Z,24.07
2019-02-18T10:34:22.098Z,25.47
2019-02-18T10:39:20.092Z,24.73
2019-02-18T10:44:04.707Z,24.70
2019-02-18T10:48:49.281Z,21.87
2019-02-18T10:53:33.912Z,23.70
2019-02-18T10:58:18.405Z,24.97
2019-02-18T11:03:03.179Z,26.97
2019-02-18T11:07:47.789Z,26.07
2019-02-18T11:12:32.463Z,26.13
2019-02-18T11:17:17.093Z,24.63
2019-02-18T11:22:02.957Z,25.50
2019-02-18T11:26:47.482Z,24.33
2019-02-18T11:31:32.188Z,23.67
2019-02-18T11:36:16.770Z,23.53
2019-02-18T11:41:07.563Z,22.93
2019-02-18T11:45:52.307Z,23.63
2019-02-18T11:50:36.934Z,23.97
2019-02-18T11:55:21.575Z,24.53
2019-02-18T12:00:06.613Z,24.70
2019-02-18T12:04:51.286Z,22.83
2019-02-18T12:09:35.876Z,24.67
2019-02-18T12:14:20.527Z,23.87
2019-02-18T12:19:05.203Z,20.43
2019-02-18T12:23:49.901Z,23.27
2019-02-18T12:28:34.464Z,23.33
2019-02-18T12:33:19.209Z,23.73
2019-02-18T12:38:04.043Z,25.07
2019-02-18T12:42:48.556Z,26.87
2019-02-18T12:47:33.303Z,24.20
2019-02-18T12:52:17.924Z,24.47
2019-02-18T12:57:03.010Z,23.47
2019-02-18T13:01:47.585Z,25.20
2019-02-18T13:06:32.299Z,22.80
2019-02-18T13:11:16.985Z,22.47
2019-02-18T13:16:01.583Z,23.03
2019-02-18T13:20:46.591Z,24.70
2019-02-18T13:25:31.249Z,21.60
2019-02-18T13:30:16.307Z,19.13
2019-02-18T13:35:00.838Z,20.20
2019-02-18T13:39:45.423Z,20.87
2019-02-18T13:44:29.987Z,22.30
2019-02-18T13:49:14.779Z,23.07
2019-02-18T13:53:59.432Z,22.63
2019-02-18T13:58:43.949Z,24.50
2019-02-18T14:03:28.651Z,24.70
2019-02-18T14:08:13.273Z,24.53
2019-02-18T14:12:57.862Z,24.03
2019-02-18T14:17:42.508Z,23.70
2019-02-18T14:22:27.140Z,23.83
2019-02-18T14:27:11.691Z,24.90
2019-02-18T14:31:56.338Z,25.50
2019-02-18T14:36:41.195Z,24.83
2019-02-18T14:41:26.264Z,24.60
2019-02-18T14:46:10.933Z,24.23
2019-02-18T14:50:56.906Z,29.20
2019-02-18T14:55:42.193Z,37.60
2019-02-18T15:00:26.805Z,23.03
2019-02-18T15:05:11.425Z,23.67
2019-02-18T15:09:56.303Z,22.87
2019-02-18T15:14:42.717Z,20.80
2019-02-18T15:19:27.269Z,21.53
2019-02-18T15:24:11.996Z,22.60
2019-02-18T15:28:56.696Z,20.70
2019-02-18T15:33:41.361Z,21.20
2019-02-18T15:38:25.972Z,21.10
2019-02-18T15:43:10.689Z,21.20
2019-02-18T15:48:01.527Z,21.33
2019-02-18T15:52:41.521Z,20.77
2019-02-18T15:57:26.140Z,20.40
2019-02-18T16:02:10.725Z,22.43
2019-02-18T16:06:55.249Z,22.13
2019-02-18T16:11:39.866Z,21.50
2019-02-18T16:16:24.528Z,21.47
2019-02-18T16:21:09.457Z,21.77
2019-02-18T16:25:54.008Z,20.80
2019-02-18T16:30:38.847Z,19.57
2019-02-18T16:35:23.549Z,19.97
2019-02-18T16:40:10.048Z,22.93
2019-02-18T16:44:54.760Z,19.77
2019-02-18T16:49:39.408Z,21.13
2019-02-18T16:54:24.464Z,20.27
2019-02-18T16:59:09.069Z,21.90
2019-02-18T17:03:53.874Z,20.83
2019-02-18T17:08:38.573Z,21.63
2019-02-18T17:13:23.453Z,21.20
2019-02-18T17:18:08.133Z,23.33
2019-02-18T17:22:52.738Z,23.83
2019-02-18T17:27:37.441Z,22.07
2019-02-18T17:32:22.585Z,19.93
2019-02-18T17:37:07.302Z,21.73
2019-02-18T17:41:52.037Z,22.70
2019-02-18T17:46:36.616Z,25.50
2019-02-18T17:51:21.238Z,28.70
2019-02-18T17:56:05.776Z,26.60
2019-02-18T18:00:53.323Z,26.93
2019-02-18T18:05:38.311Z,26.37
2019-02-18T18:10:23.085Z,21.00
2019-02-18T18:15:08.395Z,20.20
2019-02-18T18:19:53.280Z,18.20
2019-02-18T18:24:37.973Z,17.27
2019-02-18T18:29:22.855Z,17.33
2019-02-18T18:34:07.590Z,17.50
2019-02-18T18:38:52.601Z,20.13
2019-02-18T18:43:37.376Z,19.67
2019-02-18T18:48:22.084Z,18.60
2019-02-18T18:53:06.680Z,16.80
2019-02-18T18:57:51.738Z,18.57
2019-02-18T19:02:36.528Z,18.53
2019-02-18T19:07:21.214Z,10.97
2019-02-18T19:12:05.876Z,11.77
2019-02-18T19:16:50.451Z,11.23
2019-02-18T19:21:35.100Z,9.80
2019-02-18T19:26:19.704Z,11.17
2019-02-18T19:31:04.375Z,9.33
2019-02-18T19:35:49.008Z,8.47
2019-02-18T19:40:33.686Z,9.30
2019-02-18T19:51:24.345Z,11.07
2019-02-18T19:56:11.970Z,10.77
2019-02-18T20:00:56.557Z,10.77
2019-02-18T20:05:41.220Z,11.13
2019-02-18T20:10:26.749Z,9.00
2019-02-18T20:15:11.877Z,8.77
2019-02-18T20:19:56.515Z,8.63
2019-02-18T20:25:27.498Z,8.30
2019-02-18T20:30:12.722Z,8.87
2019-02-18T20:34:57.363Z,8.47
2019-02-18T20:39:42.126Z,8.37
2019-02-18T20:44:27.004Z,8.50
2019-02-18T20:49:11.888Z,8.17
2019-02-18T20:53:56.550Z,9.10
2019-02-18T20:58:41.615Z,10.03
2019-02-18T21:03:26.243Z,9.73
2019-02-18T21:08:10.849Z,10.00
2019-02-18T21:12:55.666Z,10.43
2019-02-18T21:17:40.385Z,9.43
2019-02-18T21:22:25.313Z,10.50
2019-02-18T21:27:10.033Z,10.50
2019-02-18T21:31:55.394Z,8.67
2019-02-18T21:36:40.141Z,8.20
2019-02-18T21:41:24.786Z,8.20
2019-02-18T21:46:09.517Z,7.90
2019-02-18T21:50:57.399Z,8.07
2019-02-18T21:55:42.359Z,8.00
2019-02-18T22:00:27.057Z,9.10
2019-02-18T22:05:14.732Z,8.67
2019-02-18T22:09:59.460Z,7.70
2019-02-18T22:14:44.216Z,6.70
2019-02-18T22:19:29.314Z,6.63
2019-02-18T22:24:14.030Z,6.47
2019-02-18T22:28:58.745Z,6.30
2019-02-18T22:33:43.317Z,6.40
2019-02-18T22:38:28.013Z,6.27
2019-02-18T22:43:12.574Z,5.73
2019-02-18T22:47:57.504Z,5.60
2019-02-18T22:52:42.474Z,5.63
2019-02-18T22:57:27.357Z,5.93
2019-02-18T23:02:12.487Z,5.53
2019-02-18T23:06:57.317Z,5.30
2019-02-18T23:11:42.013Z,4.93
2019-02-18T23:16:26.715Z,4.83
2019-02-18T23:21:11.401Z,4.20
2019-02-18T23:25:56.904Z,4.63
2019-02-18T23:30:41.706Z,5.13
2019-02-18T23:35:26.542Z,4.53
2019-02-18T23:40:11.523Z,4.50
2019-02-18T23:44:59.328Z,4.83
2019-02-18T23:49:42.902Z,4.20
2019-02-18T23:54:27.594Z,3.73
2019-02-18T23:59:12.232Z,3.93
